Time;durP1;ratioP1;P1;durP2;ratioP2;P2;SDS_P1;SDS_P2;PMS_P1;PMS_P2;Temp;Humidity;BMP_temperature;BMP_pressure;BME280_temperature;BME280_humidity;BME280_pressure;Samples;Min_cycle;Max_cycle;Signal;HPM_P1;HPM_P2
2022/06/04 00:01:52;;;;;;;9.13;8.43;;;;;;;25.02;50.68;95526.06;6188237;28;103189;-66
2022/06/04 00:04:55;;;;;;;9.27;8.37;;;;;;;25.02;50.20;95520.69;6178674;28;103211;-66
2022/06/04 00:08:01;;;;;;;10.00;9.10;;;;;;;25.00;50.82;95517.53;6188116;28;103509;-66
2022/06/04 00:17:47;;;;;;;10.43;9.53;;;;;;;24.98;50.84;95509.03;6236788;28;103177;-66
2022/06/04 00:20:51;;;;;;;10.20;9.40;;;;;;;25.01;50.89;95508.41;6238134;28;103484;-66
2022/06/04 00:23:54;;;;;;;9.63;8.80;;;;;;;25.08;50.38;95508.75;6236883;28;103209;-66
2022/06/04 00:26:59;;;;;;;10.07;9.27;;;;;;;25.16;50.02;95509.06;6227452;27;103339;-66
2022/06/04 00:30:02;;;;;;;9.80;8.97;;;;;;;25.19;49.71;95513.78;6237535;28;103571;-66
2022/06/04 00:33:06;;;;;;;9.63;8.83;;;;;;;25.14;50.34;95511.28;6238208;28;103411;-67
2022/06/04 00:36:09;;;;;;;8.27;7.67;;;;;;;25.06;49.78;95513.63;6235715;28;103602;-65
2022/06/04 00:39:12;;;;;;;8.00;7.47;;;;;;;25.02;49.99;95504.63;6226172;28;103009;-66
2022/06/04 00:42:19;;;;;;;8.63;7.90;;;;;;;24.95;49.92;95493.59;6238677;28;105370;-66
2022/06/04 00:45:58;;;;;;;8.47;7.80;;;;;;;24.97;49.70;95483.38;6236499;28;104513;-66
2022/06/04 00:49:02;;;;;;;8.70;7.90;;;;;;;24.89;49.85;95481.47;6226661;28;102999;-66
2022/06/04 00:52:09;;;;;;;8.07;7.30;;;;;;;24.92;49.61;95480.84;6236138;28;103240;-66
2022/06/04 00:55:12;;;;;;;8.20;7.40;;;;;;;25.04;49.25;95477.56;6237244;28;104225;-65
2022/06/04 00:58:34;;;;;;;8.50;7.80;;;;;;;25.09;49.37;95480.09;6236904;28;103058;-66
2022/06/04 01:01:47;;;;;;;8.40;7.73;;;;;;;25.13;48.99;95478.34;6226568;28;103091;-65
2022/06/04 01:05:04;;;;;;;7.87;7.17;;;;;;;25.09;49.12;95480.88;6235538;28;103056;-66
2022/06/04 01:08:30;;;;;;;9.07;8.37;;;;;;;25.05;49.12;95477.25;6237028;28;104103;-66
2022/06/04 01:15:17;;;;;;;8.10;7.40;;;;;;;25.06;49.41;95468.13;6222995;28;103433;-66
2022/06/04 01:18:32;;;;;;;8.20;7.50;;;;;;;25.04;49.32;95464.97;6237678;28;103242;-66
2022/06/04 01:21:49;;;;;;;8.17;7.57;;;;;;;24.99;49.04;95467.00;6236184;28;103199;-66
2022/06/04 01:25:11;;;;;;;8.17;7.47;;;;;;;24.90;49.38;95458.16;6230424;28;104105;-65
2022/06/04 01:28:17;;;;;;;7.93;7.20;;;;;;;24.87;49.51;95464.16;6235779;28;103794;-65
2022/06/04 01:31:25;;;;;;;8.27;7.50;;;;;;;24.87;48.96;95462.28;6214233;28;103471;-65
2022/06/04 01:34:37;;;;;;;8.23;7.47;;;;;;;24.92;49.63;95462.09;6223900;28;102965;-65
2022/06/04 01:37:46;;;;;;;8.37;7.63;;;;;;;24.95;49.32;95458.81;6212227;28;103477;-66
2022/06/04 01:41:05;;;;;;;7.87;7.10;;;;;;;24.95;48.79;95458.00;6226193;28;102966;-65
2022/06/04 01:44:14;;;;;;;9.10;8.27;;;;;;;24.83;49.20;95453.25;6235111;28;103476;-66
2022/06/04 01:47:19;;;;;;;8.50;7.90;;;;;;;24.92;49.30;95456.75;6224921;28;104133;-66
2022/06/04 01:50:26;;;;;;;8.40;7.70;;;;;;;24.97;48.97;95459.28;6236674;28;103298;-65
2022/06/04 01:53:34;;;;;;;8.13;7.53;;;;;;;25.03;48.53;95457.22;6236441;28;104049;-65
2022/06/04 01:56:41;;;;;;;8.33;7.63;;;;;;;25.00;49.01;95461.31;6224778;28;103722;-65
2022/06/04 01:59:51;;;;;;;9.23;8.43;;;;;;;25.00;48.56;95450.59;6224150;27;102990;-65
2022/06/04 02:02:58;;;;;;;8.50;7.70;;;;;;;24.93;49.07;95447.63;6235353;28;102981;-65
2022/06/04 02:06:06;;;;;;;7.80;7.10;;;;;;;24.99;49.16;95457.06;6226144;28;103097;-65
2022/06/04 02:09:14;;;;;;;8.00;7.50;;;;;;;24.98;49.14;95470.75;6204665;28;104416;-65
2022/06/04 02:12:19;;;;;;;7.80;7.10;;;;;;;25.01;48.75;95476.28;6235457;28;102980;-64
2022/06/04 02:15:31;;;;;;;7.87;7.27;;;;;;;24.99;49.02;95483.06;6236004;28;103153;-65
2022/06/04 02:18:34;;;;;;;7.60;6.90;;;;;;;25.00;48.71;95493.44;6233391;28;104132;-65
2022/06/04 02:21:38;;;;;;;8.97;8.27;;;;;;;25.07;48.42;95496.47;6228447;28;105467;-65
2022/06/04 02:24:42;;;;;;;8.60;7.90;;;;;;;25.08;48.44;95514.13;6235670;28;103311;-65
2022/06/04 02:27:45;;;;;;;7.30;6.60;;;;;;;25.09;48.51;95520.25;6234666;28;103113;-65
2022/06/04 02:30:58;;;;;;;8.03;7.27;;;;;;;25.02;48.79;95528.72;6225388;28;103077;-65
2022/06/04 02:34:10;;;;;;;8.10;7.30;;;;;;;24.83;48.71;95530.91;6236077;28;102769;-65
2022/06/04 02:37:19;;;;;;;7.50;6.90;;;;;;;24.70;48.79;95529.16;6233726;28;103474;-65
2022/06/04 02:40:27;;;;;;;7.30;6.70;;;;;;;24.75;48.70;95520.97;6234454;28;103326;-65
2022/06/04 02:43:41;;;;;;;12.03;10.93;;;;;;;24.74;48.60;95524.75;6224643;28;103263;-65
2022/06/04 02:46:51;;;;;;;21.40;19.30;;;;;;;24.73;48.88;95529.31;6233738;28;103129;-65
2022/06/04 02:50:02;;;;;;;29.27;27.07;;;;;;;24.67;48.77;95535.84;6234780;28;102780;-65
2022/06/04 02:53:07;;;;;;;18.50;16.93;;;;;;;24.66;48.69;95523.56;6213980;28;102994;-65
2022/06/04 02:56:13;;;;;;;10.40;9.60;;;;;;;24.58;48.62;95516.31;6229312;28;104239;-65
2022/06/04 02:59:19;;;;;;;10.43;9.63;;;;;;;24.57;48.94;95508.59;6234733;28;103083;-65
2022/06/04 03:02:26;;;;;;;9.97;9.17;;;;;;;24.46;48.96;95513.44;6234557;28;104117;-65
2022/06/04 03:05:30;;;;;;;9.93;9.10;;;;;;;24.48;49.14;95512.03;6221380;28;103002;-65
2022/06/04 03:08:39;;;;;;;10.03;9.13;;;;;;;24.59;48.60;95509.09;6233615;28;102826;-65
2022/06/04 03:11:44;;;;;;;10.90;9.80;;;;;;;24.62;48.88;95514.59;6234765;28;103132;-65
2022/06/04 03:14:47;;;;;;;9.17;8.33;;;;;;;24.46;49.09;95506.19;6233824;28;103750;-65
2022/06/04 03:17:52;;;;;;;9.40;8.37;;;;;;;24.50;48.97;95503.69;6223730;28;103972;-65
2022/06/04 03:20:56;;;;;;;8.77;8.10;;;;;;;24.48;49.24;95495.97;6224417;28;103234;-65
2022/06/04 03:23:59;;;;;;;9.57;7.90;;;;;;;24.52;48.87;95490.00;6235729;28;103190;-65
2022/06/04 03:27:02;;;;;;;8.93;8.03;;;;;;;24.48;48.82;95489.84;6227585;28;103270;-65
2022/06/04 03:30:07;;;;;;;8.77;8.00;;;;;;;24.46;48.57;95484.00;6229209;28;103102;-64
2022/06/04 03:33:11;;;;;;;8.43;7.73;;;;;;;24.58;48.42;95486.09;6212038;28;103153;-65
2022/06/04 03:36:14;;;;;;;8.63;7.77;;;;;;;24.76;48.17;95480.50;6229431;28;103372;-66
2022/06/04 03:39:18;;;;;;;8.30;7.60;;;;;;;24.74;48.24;95477.34;6228498;27;103206;-65
2022/06/04 03:42:21;;;;;;;7.70;7.20;;;;;;;24.74;47.99;95482.72;6222541;28;103378;-65
2022/06/04 03:45:26;;;;;;;7.93;7.33;;;;;;;24.84;48.01;95478.94;6233105;28;104245;-66
2022/06/04 03:48:31;;;;;;;10.40;9.50;;;;;;;24.96;47.80;95478.34;6235177;28;103993;-66
2022/06/04 03:51:34;;;;;;;13.03;12.03;;;;;;;25.00;47.65;95474.69;6218838;28;104288;-66
2022/06/04 03:54:57;;;;;;;15.50;13.93;;;;;;;25.01;48.20;95481.63;6230212;28;103163;-65
2022/06/04 03:58:00;;;;;;;10.70;9.60;;;;;;;25.06;47.93;95481.50;6228506;28;104007;-65
2022/06/04 04:01:13;;;;;;;11.77;10.70;;;;;;;25.06;47.39;95486.06;6231626;28;104717;-65
2022/06/04 04:04:18;;;;;;;10.00;9.20;;;;;;;25.04;47.58;95491.75;6233117;28;103019;-66
2022/06/04 04:07:21;;;;;;;10.43;9.47;;;;;;;25.02;47.78;95493.13;6232975;28;103097;-65
2022/06/04 04:10:25;;;;;;;11.57;9.07;;;;;;;25.00;48.25;95496.13;6220504;28;103177;-65
2022/06/04 04:13:28;;;;;;;9.70;8.90;;;;;;;24.90;48.32;95491.09;6226819;28;107085;-65
2022/06/04 04:16:31;;;;;;;9.67;8.90;;;;;;;24.68;48.95;95496.53;6228364;27;104300;-65
2022/06/04 04:19:36;;;;;;;9.27;8.37;;;;;;;24.66;49.21;95501.38;6223356;28;103023;-65
2022/06/04 04:22:39;;;;;;;9.03;8.23;;;;;;;24.75;48.74;95505.69;6229021;28;103151;-65
2022/06/04 04:25:42;;;;;;;8.93;8.13;;;;;;;24.85;48.75;95509.16;6219754;28;104785;-65
2022/06/04 04:28:45;;;;;;;10.03;9.20;;;;;;;24.78;49.64;95512.31;6214697;28;103993;-64
2022/06/04 04:31:49;;;;;;;10.37;9.27;;;;;;;24.89;50.96;95518.19;6216178;28;103925;-65
2022/06/04 04:34:53;;;;;;;11.83;8.97;;;;;;;25.03;49.74;95522.31;6208643;27;103064;-64
2022/06/04 04:37:57;;;;;;;10.50;9.50;;;;;;;25.08;49.52;95524.81;6226606;28;104723;-67
2022/06/04 04:41:01;;;;;;;10.40;9.50;;;;;;;25.06;49.19;95531.59;6236677;28;102962;-66
2022/06/04 04:44:04;;;;;;;9.43;8.70;;;;;;;25.21;49.03;95533.81;6235418;27;103223;-63
2022/06/04 04:47:07;;;;;;;10.17;9.37;;;;;;;25.22;49.62;95537.28;6214127;27;103352;-64
2022/06/04 04:50:16;;;;;;;10.83;9.43;;;;;;;25.17;48.80;95551.59;6223828;28;103210;-64
2022/06/04 04:53:19;;;;;;;9.90;8.90;;;;;;;25.23;48.76;95554.94;6212938;28;103220;-63
2022/06/04 04:56:24;;;;;;;22.03;12.27;;;;;;;25.20;49.21;95566.25;6230431;28;102993;-63
2022/06/04 04:59:28;;;;;;;21.37;12.20;;;;;;;25.17;49.29;95573.03;6224047;27;105609;-64
2022/06/04 05:02:31;;;;;;;15.60;10.33;;;;;;;25.14;49.05;95560.28;6229214;28;103121;-65
2022/06/04 05:05:36;;;;;;;17.17;10.43;;;;;;;25.13;49.75;95557.91;6217379;28;103997;-64
2022/06/04 05:08:39;;;;;;;14.33;9.90;;;;;;;25.13;49.22;95557.91;6211466;28;103234;-65
2022/06/04 05:11:43;;;;;;;15.20;10.00;;;;;;;25.17;49.06;95554.28;6201812;28;103047;-65
2022/06/04 05:14:53;;;;;;;11.63;10.50;;;;;;;25.21;48.93;95557.16;6213274;28;104174;-64
2022/06/04 05:17:56;;;;;;;10.90;9.90;;;;;;;25.22;48.98;95556.84;6212801;28;103386;-66
2022/06/04 05:21:11;;;;;;;14.43;10.33;;;;;;;25.25;48.83;95550.06;6203821;28;102999;-64
2022/06/04 05:24:18;;;;;;;10.87;9.77;;;;;;;25.31;48.75;95554.16;6212192;28;103276;-65
2022/06/04 05:27:21;;;;;;;11.07;10.00;;;;;;;25.30;48.66;95556.03;6212232;28;103044;-65
2022/06/04 05:30:25;;;;;;;10.97;9.87;;;;;;;25.40;48.74;95562.25;6212771;28;103172;-65
2022/06/04 05:33:28;;;;;;;11.67;9.93;;;;;;;25.38;49.34;95566.03;6217143;28;103377;-65
2022/06/04 05:36:32;;;;;;;11.20;9.40;;;;;;;25.40;48.95;95556.88;6237102;28;103128;-64
2022/06/04 05:39:36;;;;;;;13.83;12.40;;;;;;;25.42;48.93;95563.50;6237407;28;102976;-64
2022/06/04 05:42:39;;;;;;;13.20;10.07;;;;;;;25.48;49.79;95558.75;6237337;28;103100;-65
2022/06/04 05:45:48;;;;;;;11.90;10.67;;;;;;;25.54;49.24;95569.03;6225851;28;104048;-69
2022/06/04 05:48:51;;;;;;;14.03;11.13;;;;;;;25.56;49.59;95555.31;6235669;28;103980;-65
2022/06/04 05:51:56;;;;;;;13.47;10.60;;;;;;;25.64;49.31;95554.50;6232042;27;104030;-66
2022/06/04 05:54:59;;;;;;;12.73;10.80;;;;;;;25.69;49.96;95560.50;6217665;27;103253;-65
2022/06/04 05:58:02;;;;;;;12.13;11.00;;;;;;;25.75;50.11;95568.41;6219344;28;103545;-67
2022/06/04 06:01:05;;;;;;;11.77;10.67;;;;;;;25.78;50.15;95562.41;6232923;28;103817;-66
2022/06/04 06:04:11;;;;;;;11.87;10.77;;;;;;;25.76;50.25;95570.75;6235404;28;102904;-67
2022/06/04 06:07:15;;;;;;;11.57;10.33;;;;;;;25.85;50.53;95576.88;6226753;27;104004;-65
2022/06/04 06:10:20;;;;;;;11.20;10.30;;;;;;;25.96;50.76;95574.69;6235608;28;104080;-65
2022/06/04 06:13:23;;;;;;;11.03;9.93;;;;;;;26.02;50.23;95569.97;6236543;28;103101;-67
2022/06/04 06:16:28;;;;;;;10.87;9.90;;;;;;;26.05;50.30;95566.66;6236848;28;103152;-66
2022/06/04 06:19:32;;;;;;;12.37;11.53;;;;;;;25.97;50.66;95562.84;6224824;27;102991;-66
2022/06/04 06:22:37;;;;;;;12.37;10.97;;;;;;;25.91;50.24;95553.41;6236398;28;102999;-66
2022/06/04 06:25:40;;;;;;;10.47;9.53;;;;;;;25.93;50.46;95548.50;6235995;28;103305;-66
2022/06/04 06:28:45;;;;;;;15.03;11.10;;;;;;;25.91;49.94;95545.34;6232113;28;103406;-66
2022/06/04 06:31:48;;;;;;;11.27;10.27;;;;;;;25.89;50.24;95552.94;6230454;28;104230;-66
2022/06/04 06:34:51;;;;;;;25.13;11.57;;;;;;;25.83;50.62;95548.81;6235694;28;103057;-66
2022/06/04 06:37:56;;;;;;;11.07;9.97;;;;;;;25.85;50.61;95541.25;6236273;28;102762;-66
2022/06/04 06:41:00;;;;;;;11.33;10.03;;;;;;;25.84;50.76;95545.03;6225015;28;103124;-67
2022/06/04 06:44:03;;;;;;;11.30;10.13;;;;;;;25.85;50.88;95538.56;6236076;28;102698;-65
2022/06/04 06:47:07;;;;;;;10.53;9.50;;;;;;;25.91;50.68;95543.47;6236181;28;103092;-66
2022/06/04 06:50:13;;;;;;;11.10;10.00;;;;;;;25.92;50.30;95534.31;6235944;28;103041;-66
2022/06/04 06:53:18;;;;;;;11.10;9.97;;;;;;;25.89;50.31;95536.84;6212521;28;103254;-65
2022/06/04 06:56:25;;;;;;;11.67;10.47;;;;;;;25.96;50.68;95526.41;6235062;28;103299;-65
2022/06/04 06:59:29;;;;;;;11.73;10.63;;;;;;;25.33;55.05;95531.28;6234374;28;103049;-66
2022/06/04 07:02:32;;;;;;;11.33;10.37;;;;;;;25.35;53.66;95518.41;6233287;28;103060;-64
2022/06/04 07:05:35;;;;;;;15.60;10.00;;;;;;;25.76;53.50;95524.38;6226752;28;104677;-64
2022/06/04 07:08:41;;;;;;;9.97;9.07;;;;;;;25.98;53.27;95519.59;6237854;27;103188;-64
2022/06/04 07:11:45;;;;;;;12.00;10.90;;;;;;;26.17;53.12;95515.81;6239477;28;103334;-68
2022/06/04 07:14:48;;;;;;;13.60;10.93;;;;;;;26.05;52.17;95507.66;6230302;27;104157;-67
2022/06/04 07:17:51;;;;;;;10.70;9.70;;;;;;;25.94;53.21;95507.16;6238053;28;103075;-66
2022/06/04 07:20:55;;;;;;;11.30;10.27;;;;;;;26.00;52.69;95513.97;6240192;28;103142;-69
2022/06/04 07:24:01;;;;;;;10.80;9.80;;;;;;;26.18;51.99;95502.06;6239658;28;104001;-69
2022/06/04 07:27:05;;;;;;;10.97;9.97;;;;;;;26.34;51.57;95498.88;6229214;27;103210;-68
2022/06/04 07:30:09;;;;;;;11.50;10.20;;;;;;;26.36;52.06;95496.63;6239825;28;103293;-70
2022/06/04 07:33:13;;;;;;;12.07;11.00;;;;;;;26.46;52.64;95490.94;6238874;28;103122;-68
2022/06/04 07:36:17;;;;;;;12.67;11.47;;;;;;;26.48;52.57;95481.44;6239587;28;103149;-69
2022/06/04 07:39:22;;;;;;;12.30;11.10;;;;;;;26.46;52.45;95486.34;6229443;27;103264;-68
2022/06/04 07:42:27;;;;;;;11.23;10.10;;;;;;;26.53;53.37;95477.78;6233266;28;104839;-67
2022/06/04 07:45:30;;;;;;;12.37;11.10;;;;;;;26.58;53.19;95477.63;6224537;28;103156;-69
2022/06/04 07:48:33;;;;;;;11.23;10.10;;;;;;;26.52;53.05;95481.56;6223129;27;103159;-67
2022/06/04 07:51:37;;;;;;;11.90;10.90;;;;;;;26.58;52.54;95475.72;6223382;28;103071;-70
2022/06/04 07:54:43;;;;;;;12.70;11.43;;;;;;;26.55;53.10;95479.06;6224329;28;103280;-67
2022/06/04 07:57:46;;;;;;;11.40;10.40;;;;;;;26.54;52.73;95482.81;6227773;28;103209;-70
2022/06/04 08:00:55;;;;;;;12.70;11.30;;;;;;;26.57;52.84;95474.13;6221210;28;103249;-66
2022/06/04 08:03:58;;;;;;;12.03;10.93;;;;;;;26.56;52.72;95469.09;6231791;28;105022;-66
2022/06/04 08:07:04;;;;;;;10.77;9.67;;;;;;;26.51;52.99;95471.94;6228942;28;103785;-65
2022/06/04 08:10:11;;;;;;;11.37;10.00;;;;;;;26.56;52.95;95471.78;6232005;28;103293;-65
2022/06/04 08:13:15;;;;;;;10.70;9.70;;;;;;;26.61;52.81;95468.13;6204852;28;103307;-67
2022/06/04 08:16:19;;;;;;;11.83;10.13;;;;;;;26.60;52.91;95464.66;6226325;28;103318;-67
2022/06/04 08:19:24;;;;;;;11.40;10.40;;;;;;;26.61;53.57;95463.53;6229878;28;103161;-65
2022/06/04 08:22:28;;;;;;;14.80;10.63;;;;;;;26.66;53.71;95457.22;6227311;28;103204;-65
2022/06/04 08:25:32;;;;;;;13.30;10.67;;;;;;;26.66;52.68;95458.00;6208353;28;104149;-65
2022/06/04 08:28:36;;;;;;;11.77;10.57;;;;;;;26.67;52.14;95450.72;6231356;28;103165;-67
2022/06/04 08:31:39;;;;;;;11.00;9.90;;;;;;;26.64;52.33;95443.34;6224417;28;103857;-66
2022/06/04 08:34:42;;;;;;;10.90;9.90;;;;;;;26.65;51.84;95437.63;6215715;28;103759;-67
2022/06/04 08:37:45;;;;;;;10.33;9.20;;;;;;;26.63;51.49;95428.31;6210786;28;104740;-68
2022/06/04 08:40:53;;;;;;;9.57;8.77;;;;;;;26.62;51.12;95432.91;6224274;28;103997;-67
2022/06/04 08:44:03;;;;;;;9.37;8.53;;;;;;;26.58;50.69;95422.03;6231386;28;103880;-69
2022/06/04 08:47:15;;;;;;;8.43;7.67;;;;;;;26.57;49.73;95427.72;6201287;27;103541;-67
2022/06/04 08:50:21;;;;;;;7.63;7.03;;;;;;;26.59;49.79;95420.13;6223136;28;103428;-67
2022/06/04 08:53:28;;;;;;;8.53;7.83;;;;;;;26.58;49.65;95424.72;6222398;28;103392;-67
2022/06/04 09:00:04;;;;;;;9.03;8.20;;;;;;;26.57;49.99;95408.94;6192971;27;103123;-67
2022/06/04 09:03:16;;;;;;;8.30;7.60;;;;;;;26.55;50.46;95409.25;6227679;28;103844;-67
2022/06/04 09:06:32;;;;;;;8.50;7.80;;;;;;;26.52;50.13;95403.72;6227406;28;102994;-66
2022/06/04 09:09:42;;;;;;;9.70;7.80;;;;;;;26.49;49.42;95407.06;6216266;27;104369;-68
2022/06/04 09:12:50;;;;;;;8.17;7.37;;;;;;;26.49;48.44;95409.75;6231198;28;103857;-67
2022/06/04 09:15:58;;;;;;;7.47;6.70;;;;;;;26.46;48.66;95408.50;6222327;28;103225;-67
2022/06/04 09:19:04;;;;;;;7.43;6.80;;;;;;;26.43;48.61;95409.16;6203578;28;103303;-67
2022/06/04 09:22:18;;;;;;;7.10;6.50;;;;;;;26.44;48.54;95402.69;6220702;28;103047;-67
2022/06/04 09:25:26;;;;;;;7.27;6.67;;;;;;;26.44;48.74;95407.25;6228636;28;104484;-67
2022/06/04 09:28:39;;;;;;;7.40;6.70;;;;;;;26.45;48.69;95406.16;6231222;28;103272;-67
2022/06/04 09:31:55;;;;;;;7.60;6.70;;;;;;;26.43;49.06;95409.16;6218827;27;103230;-68
2022/06/04 09:34:58;;;;;;;8.40;7.60;;;;;;;26.45;49.49;95409.63;6224818;28;103825;-67
2022/06/04 09:38:02;;;;;;;8.57;7.77;;;;;;;26.44;50.22;95405.38;6230928;28;104063;-67
2022/06/04 09:41:18;;;;;;;8.83;8.13;;;;;;;26.44;50.46;95400.00;6230239;28;104312;-68
2022/06/04 09:44:24;;;;;;;8.73;7.73;;;;;;;26.47;50.91;95406.59;6219999;28;103137;-67
2022/06/04 09:47:33;;;;;;;8.80;7.90;;;;;;;26.50;51.27;95392.53;6225480;28;103198;-67
2022/06/04 09:50:38;;;;;;;9.20;7.00;;;;;;;26.51;51.80;95396.78;6230623;28;103189;-68
2022/06/04 09:53:45;;;;;;;9.03;8.33;;;;;;;26.53;51.54;95403.41;6224918;27;103198;-67
2022/06/04 09:56:54;;;;;;;9.57;8.67;;;;;;;26.56;51.78;95404.69;6225850;28;104068;-67
2022/06/04 10:00:00;;;;;;;9.57;8.67;;;;;;;26.58;51.85;95403.22;6230270;28;103375;-67
2022/06/04 10:03:13;;;;;;;10.40;9.33;;;;;;;26.60;51.66;95404.81;6230219;28;104323;-67
2022/06/04 10:06:18;;;;;;;11.13;10.33;;;;;;;26.59;52.39;95401.34;6205174;28;103119;-67
2022/06/04 10:16:17;;;;;;;12.13;10.90;;;;;;;26.58;51.55;95384.44;6220051;27;103112;-67
2022/06/04 10:19:23;;;;;;;11.67;10.77;;;;;;;26.56;51.71;95378.63;6224336;28;103623;-66
2022/06/04 10:22:26;;;;;;;13.90;11.80;;;;;;;26.60;52.16;95383.31;6228462;28;103903;-66
2022/06/04 10:25:43;;;;;;;13.33;12.23;;;;;;;26.59;51.89;95379.84;6222424;28;103417;-63
2022/06/04 10:28:59;;;;;;;12.80;11.70;;;;;;;26.62;52.49;95375.72;6209457;28;103148;-63
2022/06/04 10:32:13;;;;;;;13.13;11.93;;;;;;;26.63;52.28;95372.75;6227141;28;103811;-65
2022/06/04 10:35:51;;;;;;;11.90;11.00;;;;;;;26.63;51.31;95378.13;6218352;28;103057;-64
2022/06/04 10:39:05;;;;;;;15.03;11.70;;;;;;;26.65;52.18;95367.03;6215004;28;104284;-63
2022/06/04 10:42:22;;;;;;;11.80;10.90;;;;;;;26.64;51.16;95366.25;6218653;28;103311;-63
2022/06/04 10:45:32;;;;;;;12.90;12.00;;;;;;;26.66;51.39;95365.94;6234687;28;103015;-63
2022/06/04 10:48:54;;;;;;;13.30;12.20;;;;;;;26.67;50.76;95352.19;6235473;28;102990;-63
2022/06/04 10:52:04;;;;;;;14.23;13.13;;;;;;;26.70;50.84;95354.19;6223725;28;102737;-63
2022/06/04 10:55:16;;;;;;;13.17;11.87;;;;;;;26.71;50.89;95352.31;6233572;28;103097;-65
2022/06/04 10:58:32;;;;;;;12.87;11.87;;;;;;;26.71;50.82;95344.25;6233683;28;103548;-64
2022/06/04 11:01:43;;;;;;;12.00;11.10;;;;;;;26.68;50.31;95344.91;6231316;27;103154;-65
2022/06/04 11:04:51;;;;;;;13.10;11.93;;;;;;;26.66;49.92;95339.88;6231027;28;103045;-65
2022/06/04 11:07:59;;;;;;;13.50;12.37;;;;;;;26.64;49.69;95344.78;6235542;28;102945;-64
2022/06/04 11:11:05;;;;;;;13.90;12.67;;;;;;;26.60;48.62;95335.00;6235899;28;104119;-64
2022/06/04 11:14:13;;;;;;;14.20;13.20;;;;;;;26.59;47.92;95339.59;6222162;28;103078;-64
2022/06/04 11:17:23;;;;;;;13.90;12.80;;;;;;;26.62;49.15;95333.56;6236142;28;103093;-64
2022/06/04 11:20:30;;;;;;;14.83;13.50;;;;;;;26.66;49.37;95320.28;6234484;28;103499;-65
2022/06/04 11:23:40;;;;;;;13.70;12.70;;;;;;;26.64;48.91;95315.25;6236881;28;103067;-65
2022/06/04 11:26:48;;;;;;;15.40;14.00;;;;;;;26.63;48.56;95318.25;6225531;28;103020;-64
2022/06/04 11:29:53;;;;;;;14.33;13.13;;;;;;;26.64;47.96;95323.31;6234690;28;104010;-64
2022/06/04 11:33:04;;;;;;;15.10;13.80;;;;;;;26.63;48.15;95328.97;6235592;28;104260;-64
2022/06/04 11:36:24;;;;;;;14.40;13.30;;;;;;;26.57;47.88;95323.81;6226473;28;103040;-64
2022/06/04 11:40:02;;;;;;;14.87;13.73;;;;;;;26.63;48.30;95315.56;6235550;28;103238;-64
2022/06/04 11:43:17;;;;;;;15.90;14.70;;;;;;;26.61;47.90;95326.63;6233570;28;103999;-67
2022/06/04 11:46:30;;;;;;;18.90;17.10;;;;;;;26.63;48.20;95327.09;6224792;27;103339;-63
2022/06/04 11:49:42;;;;;;;19.90;18.20;;;;;;;26.65;48.16;95316.81;6219973;27;103939;-63
2022/06/04 11:52:56;;;;;;;19.30;17.63;;;;;;;26.68;48.72;95310.00;6219215;28;103774;-63
2022/06/04 11:56:05;;;;;;;20.47;18.67;;;;;;;26.68;49.32;95297.38;6206472;28;103295;-62
2022/06/04 11:59:35;;;;;;;17.67;16.37;;;;;;;26.68;49.93;95301.94;6212426;28;103331;-63
2022/06/04 12:02:53;;;;;;;18.90;17.40;;;;;;;26.66;49.91;95296.91;6227924;28;103221;-63
2022/06/04 12:06:02;;;;;;;18.80;17.40;;;;;;;26.68;49.31;95304.63;6230888;28;103266;-63
2022/06/04 12:09:15;;;;;;;19.47;17.97;;;;;;;26.69;50.06;95306.22;6217400;28;103720;-63
2022/06/04 12:12:24;;;;;;;19.30;17.80;;;;;;;26.68;50.06;95305.41;6220959;28;105810;-63
2022/06/04 12:15:35;;;;;;;18.57;17.13;;;;;;;26.67;49.73;95303.06;6231630;28;102959;-63
2022/06/04 12:18:45;;;;;;;20.50;18.80;;;;;;;26.66;48.96;95301.50;6229733;28;103750;-63
2022/06/04 12:25:19;;;;;;;18.30;17.00;;;;;;;26.67;49.61;95303.84;6208708;28;103223;-62
2022/06/04 12:28:27;;;;;;;20.63;19.03;;;;;;;26.66;49.82;95299.59;6212662;28;103514;-65
2022/06/04 12:31:36;;;;;;;23.43;21.70;;;;;;;26.65;50.20;95299.94;6210442;28;103138;-65
2022/06/04 12:34:41;;;;;;;20.67;19.17;;;;;;;26.64;49.45;95299.16;6209466;28;104056;-65
2022/06/04 12:37:47;;;;;;;24.03;22.13;;;;;;;26.65;49.55;95298.03;6234124;28;103469;-62
2022/06/04 12:40:52;;;;;;;26.43;24.27;;;;;;;26.66;49.82;95301.50;6238624;28;103560;-63
2022/06/04 12:43:59;;;;;;;25.50;23.07;;;;;;;26.65;49.70;95292.66;6236664;27;104640;-62
2022/06/04 12:47:13;;;;;;;24.90;23.10;;;;;;;26.67;49.73;95293.13;6236413;28;103030;-62
2022/06/04 12:50:26;;;;;;;25.30;23.40;;;;;;;26.66;49.34;95294.22;6217781;28;103904;-62
2022/06/04 12:53:33;;;;;;;23.70;21.93;;;;;;;26.68;49.10;95277.78;6218059;28;103153;-63
2022/06/04 12:56:39;;;;;;;24.90;23.10;;;;;;;26.68;49.64;95270.53;6214314;28;103154;-62
2022/06/04 12:59:45;;;;;;;24.50;22.50;;;;;;;26.69;49.70;95265.94;6233964;28;104122;-63
2022/06/04 13:03:36;;;;;;;24.57;22.60;;;;;;;26.69;49.80;95258.66;6234570;28;102929;-63
2022/06/04 13:06:48;;;;;;;22.63;21.00;;;;;;;26.69;50.19;95253.28;6219498;27;103460;-63
2022/06/04 13:09:59;;;;;;;22.40;20.70;;;;;;;26.70;50.46;95249.50;6227926;28;103425;-64
2022/06/04 13:13:13;;;;;;;22.13;20.33;;;;;;;26.70;50.29;95240.66;6244293;28;103440;-65
2022/06/04 13:16:19;;;;;;;25.00;23.00;;;;;;;26.70;49.59;95236.06;6238750;28;103595;-66
2022/06/04 13:19:50;;;;;;;24.67;22.70;;;;;;;26.69;49.65;95229.13;6227244;28;103221;-65
2022/06/04 13:22:58;;;;;;;25.00;23.00;;;;;;;26.73;49.70;95226.59;6242357;28;102856;-66
2022/06/04 13:26:33;;;;;;;23.60;21.53;;;;;;;26.80;48.80;95214.19;6239566;28;103272;-65
2022/06/04 13:29:39;;;;;;;24.30;21.90;;;;;;;26.82;49.47;95208.47;6207783;28;103300;-65
2022/06/04 13:32:42;;;;;;;24.00;22.20;;;;;;;26.79;48.24;95212.63;6213538;28;104246;-65
2022/06/04 13:35:49;;;;;;;23.07;21.27;;;;;;;26.75;48.94;95208.25;6235271;28;103535;-65
2022/06/04 13:38:56;;;;;;;23.00;21.00;;;;;;;26.74;49.08;95210.16;6216089;28;103325;-65
2022/06/04 13:42:12;;;;;;;22.90;21.00;;;;;;;26.74;48.55;95210.16;6233633;28;103984;-64
2022/06/04 13:45:29;;;;;;;22.87;21.10;;;;;;;26.74;48.56;95207.47;6238407;28;103128;-65
2022/06/04 13:48:32;;;;;;;21.10;19.50;;;;;;;26.74;49.46;95206.69;6236910;28;102888;-65
2022/06/04 13:51:42;;;;;;;19.93;18.37;;;;;;;26.77;49.42;95206.78;6232691;28;104198;-66
2022/06/04 13:54:52;;;;;;;15.73;14.37;;;;;;;26.87;48.94;95213.63;6229234;27;103189;-66
2022/06/04 13:57:58;;;;;;;15.10;14.00;;;;;;;26.90;49.23;95209.53;6237651;28;103090;-66
2022/06/04 14:01:09;;;;;;;14.87;13.67;;;;;;;26.89;49.91;95219.47;6239669;28;102959;-65
2022/06/04 14:07:35;;;;;;;16.73;15.40;;;;;;;26.80;48.79;95203.44;6232358;28;103566;-66
2022/06/04 14:10:39;;;;;;;15.40;14.20;;;;;;;26.80;48.62;95200.75;6234548;28;103328;-62
2022/06/04 14:14:01;;;;;;;16.20;14.80;;;;;;;26.85;49.66;95197.06;6235246;28;103201;-65
2022/06/04 14:17:21;;;;;;;14.57;13.20;;;;;;;26.79;49.17;95199.19;6211812;28;103309;-65
2022/06/04 14:20:35;;;;;;;13.20;12.10;;;;;;;26.77;48.82;95198.75;6209201;28;104194;-66
2022/06/04 14:23:48;;;;;;;13.50;12.23;;;;;;;26.76;48.70;95196.38;6209393;28;102963;-66
2022/06/04 14:27:03;;;;;;;12.70;11.80;;;;;;;26.74;48.56;95190.56;6197795;28;103826;-65
2022/06/04 14:30:17;;;;;;;12.77;11.77;;;;;;;26.73;49.07;95183.63;6208203;28;104563;-65
2022/06/04 14:33:24;;;;;;;13.27;11.97;;;;;;;26.73;48.80;95180.94;6207591;28;102935;-66
2022/06/04 14:36:28;;;;;;;13.90;12.70;;;;;;;26.73;48.93;95178.25;6208345;28;104536;-65
2022/06/04 14:39:34;;;;;;;13.77;12.60;;;;;;;26.72;48.53;95171.31;6199324;28;103154;-65
2022/06/04 14:43:13;;;;;;;15.60;14.40;;;;;;;26.69;48.75;95170.06;6211046;28;103125;-65
2022/06/04 14:46:35;;;;;;;15.60;14.40;;;;;;;26.69;49.42;95170.06;6186329;28;103573;-67
2022/06/04 14:50:15;;;;;;;16.20;14.70;;;;;;;26.68;49.25;95168.50;6201013;28;103553;-65